createdAt,value
2022-09-28T00:01:24.142Z,-27.2
2022-09-28T00:03:25.642Z,-27.3
2022-09-28T00:07:28.231Z,-27.1
2022-09-28T00:09:29.416Z,-27
2022-09-28T00:11:30.920Z,-27.1
2022-09-28T00:13:32.079Z,-27.2
2022-09-28T00:15:33.495Z,-27.1
2022-09-28T00:17:34.857Z,-27.3
2022-09-28T00:19:35.905Z,-27.1
2022-09-28T00:21:36.964Z,-27
2022-09-28T00:23:38.402Z,-27.3
2022-09-28T00:29:43.252Z,-27.2
2022-09-28T00:31:44.901Z,-27.1
2022-09-28T00:33:45.950Z,-27.3
2022-09-28T00:35:47.095Z,-27.2
2022-09-28T00:37:48.220Z,-27
2022-09-28T00:39:49.270Z,-27.2
2022-09-28T00:41:51.051Z,-27.1
2022-09-28T00:45:54.703Z,-27.2
2022-09-28T00:47:56.265Z,-27.2
2022-09-28T00:49:57.601Z,-27.2
2022-09-28T00:56:01.701Z,-27.1
2022-09-28T00:58:03.059Z,-27.2
2022-09-28T01:00:04.423Z,-27.2
2022-09-28T01:02:05.791Z,-27.1
2022-09-28T01:04:07.546Z,-27
2022-09-28T01:06:09.199Z,-27
2022-09-28T01:08:10.591Z,-27.3
2022-09-28T01:10:11.934Z,-27.1
2022-09-28T01:12:13.666Z,-26.9
2022-09-28T01:16:17.129Z,-27.2
2022-09-28T01:19:02.622Z,-26.9
2022-09-28T01:21:04.106Z,-27
2022-09-28T01:23:05.379Z,-27
2022-09-28T01:25:06.895Z,-27.3
2022-09-28T01:27:07.941Z,-27.2
2022-09-28T01:29:09.172Z,-27.1
2022-09-28T01:33:12.474Z,-26.9
2022-09-28T01:35:14.389Z,-27.4
2022-09-28T01:37:16.213Z,-26.9
2022-09-28T01:39:17.816Z,-27.1
2022-09-28T01:41:19.345Z,-27.2
2022-09-28T01:43:20.722Z,-27.1
2022-09-28T01:45:22.245Z,-27.2
2022-09-28T01:47:23.350Z,-27.1
2022-09-28T01:49:24.329Z,-27.2
2022-09-28T01:51:26.006Z,-27.1
2022-09-28T01:53:27.115Z,-27.1
2022-09-28T01:55:28.712Z,-27
2022-09-28T01:57:30.584Z,-27.1
2022-09-28T01:59:31.920Z,-27.2
2022-09-28T02:01:33.387Z,-27.3
2022-09-28T02:03:34.418Z,-26.9
2022-09-28T02:05:36.316Z,-27.2
2022-09-28T02:07:37.572Z,-27.1
2022-09-28T02:09:39.129Z,-27.2
2022-09-28T02:11:40.860Z,-27.1
2022-09-28T02:13:42.801Z,-27
2022-09-28T02:15:43.859Z,-26.9
2022-09-28T02:19:47.278Z,-27
2022-09-28T02:21:48.988Z,-27
2022-09-28T02:23:50.791Z,-26.9
2022-09-28T02:25:52.339Z,-27
2022-09-28T02:29:55.577Z,-27.1
2022-09-28T02:31:57.053Z,-27.1
2022-09-28T02:33:58.879Z,-27.1
2022-09-28T02:36:00.536Z,-27.1
2022-09-28T02:38:01.860Z,-27.1
2022-09-28T02:40:02.977Z,-27.1
2022-09-28T02:42:04.739Z,-27.1
2022-09-28T02:44:06.013Z,-27.3
2022-09-28T02:46:07.703Z,-27.2
2022-09-28T02:48:08.924Z,-27.1
2022-09-28T02:50:10.406Z,-27.1
2022-09-28T02:52:12.197Z,-27.2
2022-09-28T02:54:18.031Z,-27.2
2022-09-28T02:56:15.254Z,-27.1
2022-09-28T02:58:16.217Z,-27.2
2022-09-28T03:00:17.288Z,-26.9
2022-09-28T03:02:18.662Z,-27
2022-09-28T03:04:20.186Z,-27.1
2022-09-28T03:06:21.619Z,-27
2022-09-28T03:08:22.679Z,-26.7
2022-09-28T03:10:24.482Z,-27.2
2022-09-28T03:12:25.907Z,-27.2
2022-09-28T03:14:27.371Z,-27.2
2022-09-28T03:16:28.433Z,-27
2022-09-28T03:18:29.861Z,-26.9
2022-09-28T03:20:31.563Z,-27
2022-09-28T03:22:33.300Z,-27.1
2022-09-28T03:24:34.910Z,-27
2022-09-28T03:30:38.809Z,-27
2022-09-28T03:32:40.114Z,-27.3
2022-09-28T03:34:41.628Z,-27
2022-09-28T03:36:43.307Z,-27.2
2022-09-28T03:38:44.793Z,-27.1
2022-09-28T03:40:46.442Z,-27
2022-09-28T03:42:47.522Z,-27.2
2022-09-28T03:44:49.322Z,-27.1
2022-09-28T03:46:50.872Z,-27
2022-09-28T03:50:53.123Z,-27.1
2022-09-28T03:54:55.580Z,-27.1
2022-09-28T03:56:56.868Z,-26.9
2022-09-28T03:58:57.835Z,-26.8
2022-09-28T04:00:59.499Z,-27
2022-09-28T04:03:01.211Z,-27.1
2022-09-28T04:05:03.111Z,-27.1
2022-09-28T04:07:04.924Z,-27.2
2022-09-28T04:11:08.339Z,-27.2
2022-09-28T04:13:09.615Z,-26.9
2022-09-28T04:15:10.871Z,-26.9
2022-09-28T04:17:11.866Z,-27.1
2022-09-28T04:21:14.952Z,-27.1
2022-09-28T04:23:15.888Z,-27.2
2022-09-28T04:25:17.562Z,-27.2
2022-09-28T04:27:19.162Z,-27.1
2022-09-28T04:29:20.419Z,-27.1
2022-09-28T04:31:22.104Z,-27
2022-09-28T04:33:23.399Z,-27.1
2022-09-28T04:35:25.028Z,-27.2
2022-09-28T04:37:26.141Z,-27
2022-09-28T04:39:27.264Z,-27
2022-09-28T04:43:29.850Z,-27.1
2022-09-28T04:45:31.687Z,-27
2022-09-28T04:47:33.390Z,-26.9
2022-09-28T04:49:35.053Z,-27.3
2022-09-28T04:55:39.218Z,-27.1
2022-09-28T04:57:40.416Z,-27.3
2022-09-28T04:59:42.245Z,-27.1
2022-09-28T05:01:44.054Z,-27.4
2022-09-28T05:03:45.978Z,-27
2022-09-28T05:05:47.875Z,-27.2
2022-09-28T05:07:49.214Z,-27.2
2022-09-28T05:09:51.131Z,-27
2022-09-28T05:11:52.930Z,-27
2022-09-28T05:13:54.746Z,-27.2
2022-09-28T05:15:58.928Z,-27.1
2022-09-28T05:17:58.311Z,-27.2
2022-09-28T05:22:01.445Z,-27.1
2022-09-28T05:26:04.565Z,-26.8
2022-09-28T05:28:05.713Z,-27.1
2022-09-28T05:30:07.573Z,-27.2
2022-09-28T05:32:09.489Z,-27.2
2022-09-28T05:36:12.422Z,-27.1
2022-09-28T05:38:14.147Z,-27.2
2022-09-28T05:40:15.695Z,-27
2022-09-28T05:42:17.355Z,-27.2
2022-09-28T05:44:18.428Z,-27
2022-09-28T05:46:19.941Z,-27.1
2022-09-28T05:48:21.383Z,-27.3
2022-09-28T05:54:24.771Z,-27.3
2022-09-28T05:56:26.571Z,-27.2
2022-09-28T05:58:28.337Z,-27.1
2022-09-28T06:00:29.654Z,-27.3
2022-09-28T06:02:31.653Z,-27.2
2022-09-28T06:04:32.870Z,-27.2
2022-09-28T06:08:35.879Z,-27
2022-09-28T06:10:37.039Z,-27.2
2022-09-28T06:12:38.208Z,-27
2022-09-28T06:14:39.163Z,-27
2022-09-28T06:16:43.780Z,-27.2
2022-09-28T06:18:42.878Z,-27
2022-09-28T06:20:44.241Z,-27.1
2022-09-28T06:22:46.145Z,-27.1
2022-09-28T06:24:47.987Z,-27.1
2022-09-28T06:26:49.048Z,-27.2
2022-09-28T06:28:50.553Z,-27.1
2022-09-28T06:30:52.426Z,-27.2
2022-09-28T06:32:53.444Z,-27.2
2022-09-28T06:36:56.562Z,-23.3
2022-09-28T06:40:59.375Z,-25.1
2022-09-28T06:43:00.733Z,-26.2
2022-09-28T06:45:01.888Z,-26.4
2022-09-28T06:47:03.800Z,-26.6
2022-09-28T06:51:06.860Z,-27
2022-09-28T06:53:08.717Z,-27.1
2022-09-28T06:55:10.525Z,-27.1
2022-09-28T06:57:11.625Z,-27.3
2022-09-28T06:59:13.419Z,-27.3
2022-09-28T07:01:15.241Z,-27.3
2022-09-28T07:03:16.812Z,-27.1
2022-09-28T07:05:17.897Z,-27.1
2022-09-28T07:07:19.023Z,-26.8
2022-09-28T07:09:29.046Z,-26.5
2022-09-28T07:11:22.051Z,-27.2
2022-09-28T07:13:45.939Z,-27.3
2022-09-28T07:15:25.716Z,-27.1
2022-09-28T07:17:27.679Z,-26.2
2022-09-28T07:19:29.528Z,-26.9
2022-09-28T07:21:30.894Z,-26.6
2022-09-28T07:23:32.252Z,-26.2
2022-09-28T07:25:32.825Z,-26.6
2022-09-28T07:27:34.658Z,-27.2
2022-09-28T07:29:35.987Z,-27.2
2022-09-28T07:31:36.926Z,-26.9
2022-09-28T07:33:37.982Z,-26.1
2022-09-28T07:35:38.954Z,-22
2022-09-28T07:37:40.258Z,4.6
2022-09-28T07:39:41.883Z,4.4
2022-09-28T07:41:43.003Z,-4.1
2022-09-28T07:43:44.915Z,-10.4
2022-09-28T07:45:46.200Z,-24.2
2022-09-28T07:49:56.748Z,-27
2022-09-28T07:51:50.008Z,-27
2022-09-28T07:53:51.555Z,-27.1
2022-09-28T07:55:52.694Z,-22.4
2022-09-28T07:57:53.649Z,-24.7
2022-09-28T07:59:55.480Z,-26.8
2022-09-28T08:01:56.582Z,-27
2022-09-28T08:04:41.635Z,-25.2
2022-09-28T08:06:42.983Z,-26.1
2022-09-28T08:12:47.907Z,-25
2022-09-28T08:14:49.690Z,82.5
2022-09-28T08:16:53.147Z,81.5
2022-09-28T08:18:53.353Z,79.9
2022-09-28T08:20:55.124Z,79.8
2022-09-28T08:22:56.198Z,79.5
2022-09-28T08:29:00.684Z,6.9
2022-09-28T08:31:02.033Z,78.3
2022-09-28T08:33:03.403Z,78.1
2022-09-28T08:37:06.108Z,46.4
2022-09-28T08:39:07.023Z,34.7
2022-09-28T08:41:08.616Z,76.1
2022-09-28T08:43:09.545Z,-4.19
2022-09-28T08:45:10.619Z,75.9
2022-09-28T08:47:11.967Z,74.69
2022-09-28T08:49:24.482Z,74.1
2022-09-28T08:51:15.149Z,74.1
2022-09-28T08:53:16.231Z,72.1
2022-09-28T08:55:17.666Z,73
2022-09-28T08:59:20.083Z,34.4
2022-09-28T09:01:21.749Z,71.4
2022-09-28T09:03:22.904Z,70.5
2022-09-28T09:05:24.586Z,68.8
2022-09-28T09:07:25.894Z,-2.2
2022-09-28T09:09:27.056Z,-4.69
2022-09-28T09:11:28.373Z,-16.6
2022-09-28T09:13:30.187Z,-10.2
2022-09-28T09:15:31.688Z,68.5
2022-09-28T09:17:32.613Z,66.9
2022-09-28T09:19:33.901Z,66.5
2022-09-28T09:21:35.650Z,65.69
2022-09-28T09:23:37.123Z,64.1
2022-09-28T09:25:38.817Z,-2.8
2022-09-28T09:27:40.124Z,-8.2
2022-09-28T09:29:41.109Z,-15.9
2022-09-28T09:31:42.936Z,-19.4
2022-09-28T09:33:44.063Z,-16
2022-09-28T09:35:45.596Z,-14.3
2022-09-28T09:37:46.858Z,-21.1
2022-09-28T09:39:48.000Z,-23.2
2022-09-28T09:41:49.221Z,-17.7
2022-09-28T09:43:50.805Z,67.9
2022-09-28T09:47:53.741Z,64.8
2022-09-28T09:49:55.147Z,64.1
2022-09-28T09:51:56.551Z,64.1
2022-09-28T09:53:58.165Z,63
2022-09-28T09:55:59.673Z,61.3
2022-09-28T09:58:00.746Z,60
2022-09-28T10:00:02.249Z,59.6
2022-09-28T10:02:03.927Z,57.3
2022-09-28T10:04:05.373Z,56.5
2022-09-28T10:10:09.910Z,51.2
2022-09-28T10:12:11.276Z,45
2022-09-28T10:14:12.886Z,41.1
2022-09-28T10:16:13.909Z,40.09
2022-09-28T10:18:15.178Z,38.2
2022-09-28T10:20:16.513Z,36.5
2022-09-28T10:22:17.390Z,34.59
2022-09-28T10:24:18.750Z,34.09
2022-09-28T10:26:24.162Z,30.9
2022-09-28T10:28:21.497Z,30
2022-09-28T10:30:22.517Z,28.3
2022-09-28T10:32:23.608Z,26.9
2022-09-28T10:34:24.516Z,26.4
2022-09-28T10:36:25.715Z,25.4
2022-09-28T10:38:27.050Z,22.6
2022-09-28T10:40:28.884Z,22
2022-09-28T10:42:30.321Z,19.5
2022-09-28T10:44:31.975Z,18.29
2022-09-28T10:46:33.339Z,17.2
2022-09-28T10:50:36.158Z,16
2022-09-28T10:52:37.463Z,15.8
2022-09-28T10:54:38.405Z,14.6
2022-09-28T10:56:39.938Z,13.4
2022-09-28T10:58:41.804Z,13.9
2022-09-28T11:00:44.318Z,11.2
2022-09-28T11:02:45.280Z,10.3
2022-09-28T11:04:46.447Z,9.5
2022-09-28T11:06:48.346Z,10.4
2022-09-28T11:08:49.774Z,9.8
2022-09-28T11:10:51.600Z,7.8
2022-09-28T11:12:52.495Z,-27.6
2022-09-28T11:14:53.809Z,-27.3
2022-09-28T11:16:55.050Z,-27.5
2022-09-28T11:18:56.135Z,-27.4
2022-09-28T11:22:59.574Z,-27.5
2022-09-28T11:25:01.190Z,-27.4
2022-09-28T11:27:02.584Z,-27.1
2022-09-28T11:29:03.667Z,-27.4
2022-09-28T11:35:07.231Z,-27.6
2022-09-28T11:37:08.454Z,-27.5
2022-09-28T11:39:09.849Z,-27.3
2022-09-28T11:41:11.279Z,-27.3
2022-09-28T11:43:13.249Z,-27.4
2022-09-28T11:45:14.341Z,-27.5
2022-09-28T11:47:15.403Z,-27.6
2022-09-28T11:49:16.576Z,-27.6
2022-09-28T11:51:18.283Z,-27.6
2022-09-28T11:53:19.355Z,-27.7
2022-09-28T11:55:20.857Z,-27.5
2022-09-28T11:57:22.119Z,-27.7
2022-09-28T11:59:23.412Z,-27.6
2022-09-28T12:01:24.423Z,-27.3
2022-09-28T12:03:26.137Z,-27.6
2022-09-28T12:05:27.580Z,-27.4
2022-09-28T12:07:28.495Z,-27.6
2022-09-28T12:11:31.200Z,-27.6
2022-09-28T12:13:32.395Z,-27.6
2022-09-28T12:15:42.300Z,-27.6
2022-09-28T12:17:35.532Z,-27.3
2022-09-28T12:19:36.394Z,-27.4
2022-09-28T12:21:37.832Z,-27.6
2022-09-28T12:23:38.921Z,-27.4
2022-09-28T12:25:40.025Z,-27.6
2022-09-28T12:27:41.501Z,-27.4
2022-09-28T12:29:42.698Z,-27.5
2022-09-28T12:33:45.392Z,-27.5
2022-09-28T12:35:46.816Z,-27.6
2022-09-28T12:37:49.740Z,-27.6
2022-09-28T12:39:57.374Z,-27.7
2022-09-28T12:41:49.913Z,-27.8
2022-09-28T12:43:51.501Z,-27.2
2022-09-28T12:47:53.398Z,-27.6
2022-09-28T12:51:55.908Z,-27.9
2022-09-28T12:53:57.449Z,-27.6
2022-09-28T12:55:58.996Z,-27.3
2022-09-28T13:00:01.086Z,-27.2
2022-09-28T13:04:04.368Z,-27.6
2022-09-28T13:06:05.366Z,-27.1
2022-09-28T13:10:07.339Z,-27.5
2022-09-28T13:12:08.580Z,-27.4
2022-09-28T13:14:10.585Z,-27.2
2022-09-28T13:16:11.909Z,-27.4
2022-09-28T13:18:13.399Z,-27.4
2022-09-28T13:20:15.278Z,-27.3
2022-09-28T13:22:16.169Z,-27.4
2022-09-28T13:24:31.444Z,-27.7
2022-09-28T13:26:19.022Z,-27.1
2022-09-28T13:28:20.663Z,-27.4
2022-09-28T13:30:21.645Z,-27.7
2022-09-28T13:32:23.013Z,-27.3
2022-09-28T13:34:23.943Z,-27.1
2022-09-28T13:36:25.033Z,-27.4
2022-09-28T13:38:26.497Z,-27.6
2022-09-28T13:40:28.172Z,-27.4
2022-09-28T13:42:29.598Z,-27.4
2022-09-28T13:46:32.392Z,-27.2
2022-09-28T13:48:33.204Z,-27.3
2022-09-28T13:52:35.907Z,-27.2
2022-09-28T13:54:41.463Z,-27.3
2022-09-28T13:56:38.610Z,-27.5
2022-09-28T13:58:40.161Z,-27.5
2022-09-28T14:00:41.058Z,-27.3
2022-09-28T14:02:42.730Z,-27.5
2022-09-28T14:04:44.233Z,-27.3
2022-09-28T14:06:47.470Z,-27.3
2022-09-28T14:08:46.462Z,-27.2
2022-09-28T14:14:50.843Z,-27.4
2022-09-28T14:16:51.943Z,-27.4
2022-09-28T14:18:52.856Z,-27.3
2022-09-28T14:20:54.140Z,-27.5
2022-09-28T14:24:56.948Z,-27.3
2022-09-28T14:26:58.641Z,-27.3
2022-09-28T14:29:00.467Z,-27.5
2022-09-28T14:31:01.601Z,-27.6
2022-09-28T14:33:02.830Z,-27.3
2022-09-28T14:35:04.452Z,-27.3
2022-09-28T14:41:08.460Z,-27.4
2022-09-28T14:43:09.789Z,-27.3
2022-09-28T14:45:11.579Z,-27.3
2022-09-28T14:47:12.910Z,-27.4
2022-09-28T14:50:16.633Z,-27.1
2022-09-28T14:52:18.036Z,-27.3
2022-09-28T14:54:19.101Z,-27.4
2022-09-28T14:56:19.813Z,-27.4
2022-09-28T14:58:20.922Z,-27.5
2022-09-28T15:00:22.086Z,61.3
2022-09-28T15:02:24.413Z,60.1
2022-09-28T15:06:26.581Z,56.7
2022-09-28T15:08:27.954Z,53.6
2022-09-28T15:10:29.450Z,15.7
2022-09-28T15:12:30.809Z,51.4
2022-09-28T15:18:35.841Z,35.5
2022-09-28T15:20:37.408Z,33.2
2022-09-28T15:22:38.264Z,29.1
2022-09-28T15:24:40.096Z,-21.9
2022-09-28T15:26:41.372Z,28.4
2022-09-28T15:28:43.167Z,27.4
2022-09-28T15:30:44.658Z,26.4
2022-09-28T15:32:45.526Z,25
2022-09-28T15:34:46.913Z,23.5
2022-09-28T15:36:48.591Z,23.5
2022-09-28T15:38:50.106Z,21.7
2022-09-28T15:40:51.086Z,20.4
2022-09-28T15:42:54.807Z,20.4
2022-09-28T15:44:53.515Z,18.29
2022-09-28T15:46:54.500Z,14.2
2022-09-28T15:48:56.251Z,14.4
2022-09-28T15:50:57.531Z,-26.5
2022-09-28T15:52:58.807Z,-27.5
2022-09-28T15:54:59.705Z,15.5
2022-09-28T15:57:01.150Z,17.29
2022-09-28T16:01:03.574Z,15
2022-09-28T16:03:05.164Z,10.8
2022-09-28T16:05:06.683Z,10.4
2022-09-28T16:07:07.772Z,-27.5
2022-09-28T16:09:09.561Z,-27.3
2022-09-28T16:11:10.552Z,-27.3
2022-09-28T16:17:14.440Z,-27.3
2022-09-28T16:19:15.594Z,-27.2
2022-09-28T16:21:16.633Z,-27.2
2022-09-28T16:23:17.885Z,-27.5
2022-09-28T16:25:19.364Z,-27.3
2022-09-28T16:27:20.388Z,-27.1
2022-09-28T16:29:22.213Z,-27.2
2022-09-28T16:31:23.954Z,-27.3
2022-09-28T16:33:25.003Z,-27.2
2022-09-28T16:35:26.080Z,-27.4
2022-09-28T16:37:27.879Z,-27.4
2022-09-28T16:39:29.681Z,-27.3
2022-09-28T16:41:31.479Z,-27.4
2022-09-28T16:43:33.032Z,-27.6
2022-09-28T16:47:35.684Z,-27.1
2022-09-28T16:49:37.494Z,-27.1
2022-09-28T16:51:38.700Z,-27.5
2022-09-28T16:53:40.588Z,-27.1
2022-09-28T16:59:44.717Z,-27.6
2022-09-28T17:01:45.859Z,-27.3
2022-09-28T17:03:46.973Z,-27.5
2022-09-28T17:07:49.674Z,-27.6
2022-09-28T17:09:50.731Z,-27.6
2022-09-28T17:13:54.180Z,-27.6
2022-09-28T17:15:55.372Z,-27.4
2022-09-28T17:22:00.544Z,-27.7
2022-09-28T17:24:02.164Z,-27.6
2022-09-28T17:26:03.850Z,-27.5
2022-09-28T17:28:05.078Z,-27.4
2022-09-28T17:30:07.012Z,-27.5
2022-09-28T17:32:08.509Z,-27.2
2022-09-28T17:34:10.383Z,-27.3
2022-09-28T17:36:12.028Z,-27.3
2022-09-28T17:38:13.756Z,-27.1
2022-09-28T17:40:15.535Z,-27.2
2022-09-28T17:42:17.419Z,-27.1
2022-09-28T17:44:18.835Z,-27
2022-09-28T17:46:20.477Z,-27.3
2022-09-28T17:48:21.566Z,-27.1
2022-09-28T17:50:22.815Z,-27.2
2022-09-28T17:52:24.269Z,-27
2022-09-28T17:54:25.959Z,-27.2
2022-09-28T17:56:31.105Z,-27
2022-09-28T17:58:28.918Z,-27
2022-09-28T18:00:30.204Z,-27
2022-09-28T18:02:32.093Z,-26.9
2022-09-28T18:04:51.127Z,-27
2022-09-28T18:06:34.354Z,-27
2022-09-28T18:10:37.043Z,-27
2022-09-28T18:12:38.321Z,-27.4
2022-09-28T18:14:40.198Z,-27.2
2022-09-28T18:16:41.183Z,-27.3
2022-09-28T18:18:42.398Z,-26.8
2022-09-28T18:22:45.450Z,-26.8
2022-09-28T18:24:46.586Z,-27.2
2022-09-28T18:26:48.156Z,-27.2
2022-09-28T18:28:50.073Z,-27.2
2022-09-28T18:30:51.792Z,-27.1
2022-09-28T18:32:53.695Z,-27.1
2022-09-28T18:34:54.900Z,-27.2
2022-09-28T18:36:55.898Z,-27.3
2022-09-28T18:38:57.579Z,-26.9
2022-09-28T18:40:58.673Z,-27.1
2022-09-28T18:43:00.514Z,-27.1
2022-09-28T18:45:01.779Z,-27.2
2022-09-28T18:47:03.416Z,-27
2022-09-28T18:49:05.155Z,-27.2
2022-09-28T18:51:06.718Z,-27.1
2022-09-28T18:55:09.897Z,-27.1
2022-09-28T18:57:11.287Z,-27.3
2022-09-28T18:59:13.093Z,-27.1
2022-09-28T19:01:29.740Z,-27
2022-09-28T19:03:16.285Z,-27.3
2022-09-28T19:05:17.493Z,-27.3
2022-09-28T19:07:19.118Z,-27
2022-09-28T19:09:21.094Z,-27
2022-09-28T19:11:22.765Z,-27.3
2022-09-28T19:13:24.345Z,-27
2022-09-28T19:15:25.693Z,-27.3
2022-09-28T19:17:26.951Z,-27.3
2022-09-28T19:19:27.972Z,-27.3
2022-09-28T19:21:29.483Z,-27.1
2022-09-28T19:23:31.338Z,-27.1
2022-09-28T19:25:32.502Z,-27.2
2022-09-28T19:27:33.884Z,-27.1
2022-09-28T19:29:35.011Z,-27.2
2022-09-28T19:31:36.386Z,-27.3
2022-09-28T19:33:38.023Z,-27.2
2022-09-28T19:37:41.322Z,-27
2022-09-28T19:39:42.324Z,-27.2
2022-09-28T19:41:44.273Z,-27.1
2022-09-28T19:43:44.407Z,-27.4
2022-09-28T19:45:45.385Z,-27.1
2022-09-28T19:49:47.817Z,-26.9
2022-09-28T19:52:08.446Z,-27.3
2022-09-28T19:53:50.978Z,-27.1
2022-09-28T19:55:52.398Z,-27.2
2022-09-28T19:57:53.701Z,-27
2022-09-28T19:59:57.989Z,-27.3
2022-09-28T20:05:59.301Z,-27
2022-09-28T20:08:00.801Z,-27.1
2022-09-28T20:10:02.435Z,-27.1
2022-09-28T20:12:04.176Z,-27.2
2022-09-28T20:14:05.232Z,-27.1
2022-09-28T20:16:07.201Z,-27.2
2022-09-28T20:20:10.434Z,-27.1
2022-09-28T20:22:12.399Z,-27.1
2022-09-28T20:26:14.711Z,-27.2
2022-09-28T20:28:15.980Z,-27
2022-09-28T20:30:17.241Z,-27
2022-09-28T20:32:19.200Z,-27
2022-09-28T20:36:21.833Z,-27.2
2022-09-28T20:38:23.771Z,-27
2022-09-28T20:40:25.471Z,-27
2022-09-28T20:42:27.388Z,-27
2022-09-28T20:48:32.428Z,-27.3
2022-09-28T20:50:33.423Z,-27.2
2022-09-28T20:52:34.715Z,-27.1
2022-09-28T20:56:37.337Z,-27.3
2022-09-28T20:58:38.380Z,-27.2
2022-09-28T21:00:39.394Z,-27.2
2022-09-28T21:02:40.648Z,-27.2
2022-09-28T21:04:41.982Z,-27.2
2022-09-28T21:06:43.323Z,-27.1
2022-09-28T21:08:44.411Z,-27.2
2022-09-28T21:10:46.172Z,-27.3
2022-09-28T21:12:47.940Z,-27.3
2022-09-28T21:14:49.322Z,-27.3
2022-09-28T21:16:50.687Z,-27.3
2022-09-28T21:18:52.530Z,-27.2
2022-09-28T21:20:53.986Z,-27
2022-09-28T21:22:55.958Z,-27.2
2022-09-28T21:26:59.017Z,-27.3
2022-09-28T21:29:00.177Z,-27.2
2022-09-28T21:31:02.043Z,-27.1
2022-09-28T21:33:03.084Z,-27.1
2022-09-28T21:35:04.057Z,-27.2
2022-09-28T21:35:47.930Z,-26.9
2022-09-28T21:37:49.710Z,-27.3
2022-09-28T21:41:52.778Z,-27.3
2022-09-28T21:43:53.858Z,-27
2022-09-28T21:45:55.480Z,-27.2
2022-09-28T21:47:56.927Z,-27.3
2022-09-28T21:49:57.941Z,-27.1
2022-09-28T21:51:59.723Z,-27.1
2022-09-28T21:54:00.812Z,-27.2
2022-09-28T21:56:02.617Z,-27.1
2022-09-28T21:58:04.236Z,-27.1
2022-09-28T22:00:05.446Z,-27.1
2022-09-28T22:02:06.464Z,-27.3
2022-09-28T22:04:08.371Z,-27.2
2022-09-28T22:08:11.157Z,-27.3
2022-09-28T22:10:12.331Z,-27.1
2022-09-28T22:12:13.532Z,-27.2
2022-09-28T22:14:15.398Z,-27.1
2022-09-28T22:16:16.900Z,-27.1
2022-09-28T22:18:18.643Z,-27.4
2022-09-28T22:24:23.085Z,-27.3
2022-09-28T22:26:24.578Z,-27.4
2022-09-28T22:28:26.497Z,-27.2
2022-09-28T22:30:28.116Z,-27.1
2022-09-28T22:32:29.788Z,-26.8
2022-09-28T22:34:31.224Z,-27.1
2022-09-28T22:36:33.171Z,-27.2
2022-09-28T22:38:34.327Z,-27.2
2022-09-28T22:40:35.777Z,-27.2
2022-09-28T22:42:37.046Z,-27.2
2022-09-28T22:44:38.819Z,-27.2
2022-09-28T22:46:40.459Z,-27
2022-09-28T22:48:41.556Z,-27.1
2022-09-28T22:50:42.775Z,-27
2022-09-28T22:52:44.022Z,-27.2
2022-09-28T22:54:45.141Z,-27.1
2022-09-28T22:56:46.632Z,-27.4
2022-09-28T22:58:48.232Z,-27.2
2022-09-28T23:00:49.707Z,-27.2
2022-09-28T23:02:50.883Z,-27.1
2022-09-28T23:04:51.863Z,-27.1
2022-09-28T23:06:53.380Z,-27.3
2022-09-28T23:08:54.431Z,-27.1
2022-09-28T23:10:55.522Z,-27
2022-09-28T23:12:56.657Z,-27.1
2022-09-28T23:14:58.334Z,-27.2
2022-09-28T23:16:59.472Z,-27.4
2022-09-28T23:21:02.595Z,-27
2022-09-28T23:23:04.150Z,-27.5
2022-09-28T23:25:05.794Z,-27.1
2022-09-28T23:27:07.438Z,-27.3
2022-09-28T23:31:10.490Z,-27.1
2022-09-28T23:33:11.459Z,-27.4
2022-09-28T23:35:13.193Z,-27.1
2022-09-28T23:37:14.533Z,-27.2
2022-09-28T23:39:16.459Z,-27.1
2022-09-28T23:41:17.495Z,-27.1
2022-09-28T23:43:19.228Z,-27.1
2022-09-28T23:45:20.967Z,-27.2
2022-09-28T23:47:22.272Z,-27.3
2022-09-28T23:49:24.094Z,-27.3
2022-09-28T23:51:25.841Z,-27.1
2022-09-28T23:53:26.958Z,-27
2022-09-28T23:55:28.223Z,-27.1
2022-09-28T23:57:29.206Z,-27.3
2022-09-28T23:59:30.535Z,-27.3
